Time;durP1;ratioP1;P1;durP2;ratioP2;P2;SDS_P1;SDS_P2;PMS_P1;PMS_P2;Temp;Humidity;BMP_temperature;BMP_pressure;BME280_temperature;BME280_humidity;BME280_pressure;Samples;Min_cycle;Max_cycle;Signal;HPM_P1;HPM_P2
2022/06/01 00:01:15;;;;;;;12.88;10.35;;;;;;;22.82;57.82;101138.47;5070241;28;20931;-62
2022/06/01 00:03:44;;;;;;;12.82;9.73;;;;;;;22.84;57.71;101139.88;5070913;28;20423;-62
2022/06/01 00:06:11;;;;;;;13.52;9.68;;;;;;;22.90;57.59;101129.97;5071320;28;20422;-62
2022/06/01 00:08:39;;;;;;;13.10;9.13;;;;;;;22.91;57.91;101142.44;5071223;28;20422;-62
2022/06/01 00:11:09;;;;;;;12.65;9.02;;;;;;;22.85;57.80;101135.28;5070590;28;20432;-63
2022/06/01 00:13:36;;;;;;;10.85;7.72;;;;;;;22.81;57.94;101134.94;5070164;28;20450;-62
2022/06/01 00:16:03;;;;;;;10.80;8.10;;;;;;;22.75;58.33;101127.81;5070701;28;20426;-62
2022/06/01 00:18:30;;;;;;;10.30;7.68;;;;;;;22.57;58.50;101136.09;5071022;28;20422;-62
2022/06/01 00:20:57;;;;;;;11.70;7.85;;;;;;;22.55;58.52;101133.63;5070785;28;20428;-62
2022/06/01 00:23:24;;;;;;;9.47;7.20;;;;;;;22.37;59.23;101142.72;5070406;28;20418;-62
2022/06/01 00:25:51;;;;;;;10.85;7.95;;;;;;;22.53;58.92;101147.38;5070779;28;20507;-62
2022/06/01 00:28:19;;;;;;;9.57;8.00;;;;;;;22.53;58.83;101144.66;5069210;28;20418;-62
2022/06/01 00:30:46;;;;;;;10.38;7.45;;;;;;;22.49;58.83;101146.22;5068098;28;20415;-62
2022/06/01 00:33:13;;;;;;;10.75;7.85;;;;;;;22.55;58.22;101157.94;5070758;28;20433;-62
2022/06/01 00:35:40;;;;;;;9.70;7.22;;;;;;;22.34;58.78;101159.38;5069133;28;20982;-62
2022/06/01 00:38:07;;;;;;;10.38;7.70;;;;;;;22.41;58.74;101161.97;5069746;28;21049;-62
2022/06/01 00:40:34;;;;;;;10.90;8.10;;;;;;;22.47;58.50;101152.91;5070700;28;20452;-62
2022/06/01 00:43:16;;;;;;;10.93;8.00;;;;;;;22.52;57.94;101144.91;5070080;28;20407;-62
2022/06/01 00:45:44;;;;;;;10.35;7.72;;;;;;;22.24;58.72;101143.78;5069986;28;20506;-62
2022/06/01 00:48:11;;;;;;;11.47;7.93;;;;;;;22.26;59.13;101138.97;5068112;28;20946;-62
2022/06/01 00:50:41;;;;;;;10.73;7.70;;;;;;;22.19;59.18;101137.44;5070216;28;20411;-62
2022/06/01 00:53:11;;;;;;;9.18;7.18;;;;;;;22.12;59.22;101142.97;5070293;28;20425;-62
2022/06/01 00:55:43;;;;;;;10.52;7.47;;;;;;;22.00;59.59;101142.97;5069719;28;20427;-62
2022/06/01 01:00:52;;;;;;;10.98;7.65;;;;;;;22.09;59.59;101133.47;5107690;27;20404;-61
2022/06/01 01:03:22;;;;;;;9.93;7.32;;;;;;;22.04;59.38;101127.94;5099885;28;20425;-61
2022/06/01 01:05:55;;;;;;;12.32;7.82;;;;;;;22.01;59.61;101130.31;5096858;28;20412;-61
2022/06/01 01:08:22;;;;;;;10.63;7.30;;;;;;;22.05;59.34;101132.28;5100747;28;20426;-62
2022/06/01 01:10:48;;;;;;;8.85;7.18;;;;;;;21.99;59.51;101127.03;5097217;28;20415;-61
2022/06/01 01:13:16;;;;;;;10.32;7.57;;;;;;;22.09;58.97;101130.78;5104345;28;20427;-61
2022/06/01 01:15:51;;;;;;;11.43;7.32;;;;;;;22.08;59.22;101128.31;5099531;28;20917;-61
2022/06/01 01:18:23;;;;;;;9.52;7.30;;;;;;;21.98;59.88;101128.06;5102567;28;20443;-61
2022/06/01 01:21:03;;;;;;;9.25;7.10;;;;;;;22.06;59.26;101125.03;5096892;28;20763;-61
2022/06/01 01:23:35;;;;;;;10.82;7.47;;;;;;;21.94;59.93;101135.81;5099590;28;20886;-61
2022/06/01 01:26:04;;;;;;;9.27;7.10;;;;;;;21.89;59.76;101131.09;5100060;28;20940;-61
2022/06/01 01:28:31;;;;;;;9.48;7.32;;;;;;;21.99;59.52;101129.72;5101454;28;20408;-62
2022/06/01 01:31:05;;;;;;;9.20;7.20;;;;;;;21.86;60.00;101117.25;5093179;28;20429;-61
2022/06/01 01:33:32;;;;;;;9.75;7.13;;;;;;;21.62;60.96;101125.34;5101080;28;20417;-61
2022/06/01 01:36:02;;;;;;;10.38;7.47;;;;;;;21.69;60.68;101126.06;5101060;28;20414;-61
2022/06/01 01:41:15;;;;;;;10.65;7.60;;;;;;;21.87;59.85;101135.09;5107928;27;20423;-62
2022/06/01 01:43:50;;;;;;;11.10;7.40;;;;;;;21.76;60.10;101134.06;5103823;28;20424;-61
2022/06/01 01:46:17;;;;;;;9.18;7.10;;;;;;;21.83;59.94;101132.06;5096538;28;20421;-63
2022/06/01 01:48:44;;;;;;;11.18;7.32;;;;;;;21.88;59.94;101125.97;5102575;28;20428;-63
2022/06/01 01:51:12;;;;;;;12.55;8.35;;;;;;;21.87;59.90;101122.44;5102147;28;20431;-63
2022/06/01 01:53:39;;;;;;;12.13;7.20;;;;;;;21.98;59.39;101122.66;5101984;28;20531;-64
2022/06/01 01:57:05;;;;;;;12.38;6.95;;;;;;;21.89;59.74;101120.31;5108575;27;20820;-61
2022/06/01 01:59:45;;;;;;;9.50;7.50;;;;;;;21.88;59.81;101117.88;5103773;28;20814;-61
2022/06/01 02:02:19;;;;;;;10.65;7.20;;;;;;;21.85;59.90;101119.16;5094798;28;20421;-61
2022/06/01 02:07:40;;;;;;;10.77;7.22;;;;;;;21.87;59.96;101122.44;5099338;28;20923;-61
2022/06/01 02:12:55;;;;;;;9.07;7.47;;;;;;;21.80;59.66;101137.09;5100686;28;20412;-61
2022/06/01 02:15:27;;;;;;;11.25;8.40;;;;;;;21.72;59.30;101139.09;5093841;28;20426;-61
2022/06/01 02:18:00;;;;;;;13.50;8.25;;;;;;;21.76;58.69;101142.16;5097478;28;20421;-61
2022/06/01 02:20:30;;;;;;;12.48;8.65;;;;;;;21.72;58.47;101140.97;5100426;28;20461;-61
2022/06/01 02:22:58;;;;;;;14.60;9.55;;;;;;;21.64;58.01;101139.44;5102538;28;20424;-61
2022/06/01 02:25:25;;;;;;;14.35;9.45;;;;;;;21.66;58.31;101139.19;5099638;28;20426;-60
2022/06/01 02:27:57;;;;;;;13.70;8.75;;;;;;;21.70;57.66;101137.69;5095096;28;20962;-62
2022/06/01 02:30:27;;;;;;;12.80;8.90;;;;;;;21.71;57.26;101133.94;5097219;28;20416;-61
2022/06/01 02:32:56;;;;;;;11.05;8.25;;;;;;;21.56;57.67;101127.13;5096109;28;20775;-61
2022/06/01 02:35:25;;;;;;;12.27;8.48;;;;;;;21.57;57.61;101117.97;5100677;28;20435;-61
2022/06/01 02:37:56;;;;;;;12.63;8.85;;;;;;;21.50;57.65;101119.97;5098763;28;20425;-61
2022/06/01 02:40:25;;;;;;;13.05;8.63;;;;;;;21.43;57.60;101113.81;5101486;28;20925;-61
2022/06/01 02:42:54;;;;;;;15.10;9.30;;;;;;;21.47;57.57;101120.41;5101566;28;20412;-61
2022/06/01 02:45:24;;;;;;;12.75;8.70;;;;;;;21.37;57.70;101122.81;5096819;28;20424;-61
2022/06/01 02:47:54;;;;;;;14.20;9.27;;;;;;;21.46;57.70;101132.25;5094643;28;20954;-61
2022/06/01 02:50:22;;;;;;;15.35;9.15;;;;;;;21.38;57.73;101143.38;5100576;28;20443;-61
2022/06/01 02:52:50;;;;;;;12.55;8.95;;;;;;;21.26;57.90;101148.72;5099302;28;20427;-61
2022/06/01 02:55:18;;;;;;;14.60;8.88;;;;;;;21.22;58.29;101158.31;5097229;28;20428;-61
2022/06/01 02:57:45;;;;;;;13.05;8.80;;;;;;;21.00;58.28;101163.41;5094291;28;20414;-61
2022/06/01 03:00:18;;;;;;;11.85;8.10;;;;;;;20.90;58.45;101165.81;5097944;28;20419;-61
2022/06/01 03:02:46;;;;;;;13.27;7.87;;;;;;;21.13;57.56;101163.22;5096515;28;20409;-61
2022/06/01 03:05:14;;;;;;;11.38;7.97;;;;;;;21.19;57.31;101166.88;5093062;28;20412;-61
2022/06/01 03:07:41;;;;;;;11.50;7.82;;;;;;;21.18;57.56;101171.44;5082487;28;20855;-61
2022/06/01 03:10:09;;;;;;;12.43;8.18;;;;;;;21.18;57.33;101176.84;5085432;28;20474;-61
2022/06/01 03:12:36;;;;;;;12.05;8.13;;;;;;;21.14;57.46;101185.59;5086129;28;20420;-62
2022/06/01 03:15:04;;;;;;;12.32;8.25;;;;;;;21.06;58.04;101188.63;5083800;28;20427;-61
2022/06/01 03:17:32;;;;;;;12.65;8.15;;;;;;;21.08;57.65;101197.31;5082325;28;20918;-61
2022/06/01 03:19:59;;;;;;;12.18;8.65;;;;;;;21.16;57.56;101199.69;5078978;28;20424;-61
2022/06/01 03:22:26;;;;;;;16.35;8.50;;;;;;;21.18;57.19;101194.91;5087960;28;20413;-61
2022/06/01 03:24:53;;;;;;;12.85;8.20;;;;;;;21.09;57.41;101197.09;5081248;28;20432;-61
2022/06/01 03:27:20;;;;;;;12.77;7.43;;;;;;;21.15;57.31;101195.34;5082299;28;20424;-61
2022/06/01 03:29:47;;;;;;;10.95;7.55;;;;;;;21.18;57.14;101203.78;5079872;28;20516;-61
2022/06/01 03:32:14;;;;;;;12.00;7.53;;;;;;;21.35;56.69;101197.75;5081876;28;20409;-61
2022/06/01 03:34:42;;;;;;;11.70;7.40;;;;;;;21.52;56.48;101206.88;5080410;28;20421;-61
2022/06/01 03:37:09;;;;;;;10.17;7.03;;;;;;;21.64;55.95;101211.47;5083671;28;20428;-61
2022/06/01 03:39:36;;;;;;;11.55;7.15;;;;;;;21.57;55.96;101212.41;5088563;28;20922;-61
2022/06/01 03:42:03;;;;;;;12.02;7.55;;;;;;;21.69;55.89;101214.28;5088807;28;20409;-62
2022/06/01 03:47:14;;;;;;;13.25;7.43;;;;;;;21.91;54.98;101204.59;5083464;28;20414;-61
2022/06/01 03:49:42;;;;;;;16.17;8.40;;;;;;;21.89;55.17;101211.25;5083715;28;20419;-61
2022/06/01 03:52:10;;;;;;;11.70;7.80;;;;;;;22.08;54.92;101210.09;5088867;28;20463;-61
2022/06/01 03:54:37;;;;;;;11.10;7.55;;;;;;;22.26;54.55;101211.91;5087982;28;20516;-61
2022/06/01 03:57:05;;;;;;;11.30;8.25;;;;;;;22.30;54.68;101210.34;5085517;28;20432;-61
2022/06/01 03:59:33;;;;;;;13.07;8.65;;;;;;;22.46;54.35;101213.41;5075225;28;20424;-61
2022/06/01 04:02:01;;;;;;;13.05;8.85;;;;;;;22.39;54.79;101216.22;5076879;28;20792;-62
2022/06/01 04:04:28;;;;;;;12.63;8.20;;;;;;;22.42;54.55;101220.31;5077835;28;20450;-62
2022/06/01 04:06:57;;;;;;;15.35;9.30;;;;;;;22.12;55.64;101205.88;5077371;28;20430;-63
2022/06/01 04:09:24;;;;;;;11.65;8.30;;;;;;;22.10;56.07;101209.88;5084767;28;20410;-63
2022/06/01 04:11:52;;;;;;;10.70;8.13;;;;;;;22.23;55.89;101215.03;5080975;28;20415;-62
2022/06/01 04:14:19;;;;;;;13.05;8.15;;;;;;;22.30;55.92;101220.34;5084835;28;20582;-63
2022/06/01 04:16:46;;;;;;;14.70;8.07;;;;;;;22.24;56.37;101218.56;5073936;28;20429;-62
2022/06/01 04:19:13;;;;;;;14.40;8.53;;;;;;;22.24;56.78;101213.16;5068109;28;20908;-62
2022/06/01 04:21:43;;;;;;;12.27;7.90;;;;;;;21.94;57.44;101211.38;5070380;28;20418;-62
2022/06/01 04:24:14;;;;;;;15.32;8.85;;;;;;;21.96;57.53;101214.69;5076366;28;20413;-62
2022/06/01 04:26:42;;;;;;;14.55;8.45;;;;;;;22.01;57.65;101220.19;5075700;28;20407;-62
2022/06/01 04:29:09;;;;;;;14.30;7.78;;;;;;;22.15;57.39;101220.81;5079583;28;20509;-63
2022/06/01 04:31:37;;;;;;;11.63;7.85;;;;;;;22.18;57.56;101222.19;5080607;28;20515;-62
2022/06/01 04:34:05;;;;;;;12.35;8.27;;;;;;;22.17;57.97;101217.88;5070020;28;20430;-63
2022/06/01 04:36:32;;;;;;;15.73;8.38;;;;;;;22.13;57.91;101221.03;5078051;28;22933;-63
2022/06/01 04:38:59;;;;;;;12.45;8.38;;;;;;;22.22;57.86;101226.06;5066291;28;20429;-61
2022/06/01 04:41:27;;;;;;;12.45;8.20;;;;;;;22.24;57.93;101226.69;5065048;28;20419;-62
2022/06/01 04:43:54;;;;;;;15.60;8.30;;;;;;;22.30;57.93;101229.25;5070185;28;20422;-63
2022/06/01 04:46:21;;;;;;;13.15;7.88;;;;;;;22.35;58.09;101227.75;5064243;28;20418;-62
2022/06/01 04:48:47;;;;;;;14.35;8.30;;;;;;;22.23;58.71;101227.72;5067367;28;20414;-63
2022/06/01 04:51:15;;;;;;;15.07;8.25;;;;;;;22.42;58.11;101231.97;5065796;28;20410;-63
2022/06/01 04:53:43;;;;;;;15.40;8.93;;;;;;;22.40;58.00;101236.78;5076366;28;20927;-63
2022/06/01 04:56:10;;;;;;;17.02;9.75;;;;;;;22.43;58.06;101232.78;5064933;28;20435;-63
2022/06/01 04:58:39;;;;;;;14.63;10.00;;;;;;;22.41;58.68;101230.31;5066416;28;20962;-63
2022/06/01 05:01:06;;;;;;;20.35;11.43;;;;;;;22.44;58.32;101227.16;5055862;28;20428;-63
2022/06/01 05:03:33;;;;;;;16.92;11.13;;;;;;;22.49;58.63;101221.03;5061328;28;20415;-63
2022/06/01 05:06:00;;;;;;;18.05;11.07;;;;;;;22.36;59.02;101230.19;5067567;28;20410;-62
2022/06/01 05:08:27;;;;;;;19.42;11.38;;;;;;;22.61;58.63;101226.41;5084707;28;20499;-62
2022/06/01 05:10:54;;;;;;;16.92;11.27;;;;;;;22.73;58.47;101231.81;5076642;28;20410;-62
2022/06/01 05:13:21;;;;;;;16.52;10.13;;;;;;;22.80;58.49;101233.31;5069303;28;20414;-62
2022/06/01 05:15:55;;;;;;;18.55;10.68;;;;;;;22.92;58.29;101233.25;5077735;28;20426;-62
2022/06/01 05:18:22;;;;;;;16.37;10.43;;;;;;;22.99;58.20;101228.53;5077522;28;20407;-62
2022/06/01 05:20:49;;;;;;;15.30;10.40;;;;;;;22.88;58.20;101234.81;5069464;28;20418;-62
2022/06/01 05:23:17;;;;;;;15.57;10.50;;;;;;;22.90;58.64;101233.53;5069202;28;20928;-61
2022/06/01 05:25:44;;;;;;;18.33;10.95;;;;;;;22.73;58.73;101237.22;5069114;28;20411;-62
2022/06/01 05:28:12;;;;;;;14.73;9.65;;;;;;;22.69;58.82;101239.56;5069538;28;20418;-62
2022/06/01 05:30:39;;;;;;;13.20;10.27;;;;;;;;;;5068759;28;20407;-62
2022/06/01 05:33:07;;;;;;;15.90;10.45;;;;;;;22.74;58.96;101241.53;5069430;28;20435;-62
2022/06/01 05:35:34;;;;;;;14.63;10.27;;;;;;;22.85;59.09;101230.72;5081112;28;20405;-62
2022/06/01 05:38:02;;;;;;;13.88;10.85;;;;;;;23.09;58.39;101234.19;5056818;28;20425;-63
2022/06/01 05:40:30;;;;;;;14.68;10.25;;;;;;;23.04;58.39;101235.94;5079896;28;20405;-62
2022/06/01 05:42:57;;;;;;;14.77;10.77;;;;;;;22.82;59.02;101236.59;5083868;28;20435;-62
2022/06/01 05:45:24;;;;;;;16.30;10.88;;;;;;;22.74;59.54;101239.66;5086295;28;21344;-62
2022/06/01 05:47:51;;;;;;;14.45;10.13;;;;;;;22.89;59.03;101231.06;5087133;28;20413;-62
2022/06/01 05:50:19;;;;;;;14.55;10.20;;;;;;;22.80;59.28;101238.72;5088267;28;20798;-62
2022/06/01 05:52:46;;;;;;;13.93;9.55;;;;;;;22.75;59.29;101235.09;5084498;28;20409;-62
2022/06/01 05:55:13;;;;;;;15.18;9.93;;;;;;;22.84;58.94;101233.66;5085269;28;20417;-62
2022/06/01 05:57:40;;;;;;;11.60;9.48;;;;;;;22.80;59.07;101225.22;5086890;28;20424;-62
2022/06/01 06:00:11;;;;;;;12.82;9.68;;;;;;;22.88;59.07;101224.00;5085397;28;20910;-62
2022/06/01 06:02:38;;;;;;;14.60;7.95;;;;;;;22.84;58.83;101231.78;5084974;28;20405;-62
2022/06/01 06:06:11;;;;;;;11.40;8.32;;;;;;;22.89;58.71;101229.16;5085270;28;20416;-62
2022/06/01 06:07:55;;;;;;;7.75;6.78;;;;;;;23.14;57.53;101235.34;5075156;28;20993;-62
2022/06/01 06:10:22;;;;;;;13.82;6.50;;;;;;;23.37;57.03;101235.25;5068749;28;20904;-62
2022/06/01 06:12:49;;;;;;;11.32;6.82;;;;;;;23.36;56.97;101243.63;5073934;28;20418;-63
2022/06/01 06:15:16;;;;;;;8.68;6.43;;;;;;;23.39;56.97;101238.53;5083671;28;20415;-63
2022/06/01 06:17:43;;;;;;;8.32;6.60;;;;;;;23.43;56.10;101239.69;5076262;28;20420;-62
2022/06/01 06:20:11;;;;;;;11.05;6.22;;;;;;;23.43;56.24;101242.41;5082961;28;20436;-62
2022/06/01 06:22:38;;;;;;;11.07;6.20;;;;;;;23.76;55.41;101238.09;5068936;28;20411;-63
2022/06/01 06:25:07;;;;;;;10.32;6.28;;;;;;;23.75;55.04;101228.34;5068983;28;20422;-62
2022/06/01 06:27:34;;;;;;;10.55;6.40;;;;;;;23.82;55.30;101228.19;5068885;28;20402;-63
2022/06/01 06:30:01;;;;;;;10.25;6.30;;;;;;;24.08;54.51;101234.84;5068681;28;20916;-64
2022/06/01 06:32:28;;;;;;;8.95;5.40;;;;;;;24.24;53.86;101235.91;5068722;28;20407;-64
2022/06/01 06:34:55;;;;;;;8.20;5.35;;;;;;;24.25;53.12;101237.50;5068798;28;20509;-64
2022/06/01 06:37:22;;;;;;;8.75;5.90;;;;;;;24.23;53.41;101231.53;5068561;28;20431;-64
2022/06/01 06:39:49;;;;;;;11.38;5.13;;;;;;;24.80;52.17;101225.00;5068580;28;20413;-64
2022/06/01 06:42:17;;;;;;;7.32;5.22;;;;;;;25.11;51.44;101225.34;5070633;28;20410;-64
2022/06/01 06:44:44;;;;;;;10.05;6.20;;;;;;;25.11;51.19;101228.06;5072045;28;20770;-64
2022/06/01 06:47:10;;;;;;;13.27;6.00;;;;;;;25.78;50.12;101228.72;5081988;28;20412;-65
2022/06/01 06:49:38;;;;;;;12.38;6.28;;;;;;;25.95;49.18;101232.16;5074402;28;20407;-64
2022/06/01 06:52:06;;;;;;;11.68;5.22;;;;;;;26.40;48.32;101230.81;5072167;28;20411;-64
2022/06/01 06:54:33;;;;;;;6.77;5.47;;;;;;;26.32;48.27;101229.38;5072058;28;20418;-64
2022/06/01 06:57:00;;;;;;;10.75;6.40;;;;;;;26.29;48.47;101229.13;5071929;28;20476;-64
2022/06/01 06:59:28;;;;;;;6.90;5.32;;;;;;;26.65;47.31;101230.16;5072348;28;20927;-64
2022/06/01 07:01:55;;;;;;;11.25;4.95;;;;;;;26.90;47.42;101234.03;5072148;28;20414;-64
2022/06/01 07:04:22;;;;;;;8.52;5.28;;;;;;;26.75;46.96;101229.34;5071680;28;20904;-64
2022/06/01 07:06:48;;;;;;;8.32;5.30;;;;;;;27.28;46.09;101223.84;5071933;28;20422;-64
2022/06/01 07:09:15;;;;;;;8.75;5.50;;;;;;;27.16;45.66;101234.13;5053876;28;20415;-64
2022/06/01 07:11:42;;;;;;;7.27;5.07;;;;;;;26.87;46.29;101235.38;5078655;28;20407;-65
2022/06/01 07:14:09;;;;;;;7.50;5.30;;;;;;;26.84;46.30;101229.66;5086880;28;20413;-64
2022/06/01 07:16:37;;;;;;;6.90;4.90;;;;;;;27.06;46.31;101233.00;5088057;28;20424;-65
2022/06/01 07:19:06;;;;;;;8.45;4.85;;;;;;;26.92;46.66;101231.88;5083840;28;20417;-65
2022/06/01 07:21:36;;;;;;;6.80;4.93;;;;;;;27.23;46.17;101235.50;5071437;28;20415;-65
2022/06/01 07:24:04;;;;;;;8.25;5.50;;;;;;;26.87;46.45;101226.41;5074217;28;20467;-64
2022/06/01 07:26:33;;;;;;;7.43;5.07;;;;;;;26.76;46.15;101232.88;5087059;28;20417;-64
2022/06/01 07:29:01;;;;;;;8.27;5.05;;;;;;;26.87;46.50;101221.78;5087375;28;20416;-63
2022/06/01 07:31:28;;;;;;;7.88;4.40;;;;;;;27.25;45.71;101224.34;5071347;28;20419;-64
2022/06/01 07:33:58;;;;;;;9.48;4.90;;;;;;;27.51;45.27;101224.38;5071792;28;20419;-63
2022/06/01 07:36:25;;;;;;;10.00;4.38;;;;;;;27.67;45.63;101219.78;5071475;28;20431;-64
2022/06/01 07:44:26;;;;;;;6.75;5.25;;;;;;;27.01;46.48;101222.09;5074061;28;20406;-64
2022/06/01 07:46:54;;;;;;;7.67;5.30;;;;;;;26.67;47.90;101221.72;5079831;28;20416;-64
2022/06/01 07:49:22;;;;;;;5.53;4.95;;;;;;;26.98;47.11;101225.34;5089011;28;20405;-64
2022/06/01 07:51:49;;;;;;;6.38;4.60;;;;;;;26.72;48.00;101221.72;5076790;28;20407;-64
2022/06/01 07:54:16;;;;;;;7.10;4.80;;;;;;;26.55;47.57;101218.38;5070869;28;20415;-63
2022/06/01 07:56:43;;;;;;;6.18;3.97;;;;;;;26.62;46.68;101218.97;5059003;28;20452;-64
2022/06/01 07:59:10;;;;;;;7.50;4.68;;;;;;;26.54;47.22;101216.72;5071933;28;20788;-63
2022/06/01 08:01:38;;;;;;;5.82;3.25;;;;;;;26.52;46.15;101211.53;5072071;28;20419;-63
2022/06/01 08:04:06;;;;;;;5.57;3.30;;;;;;;26.52;45.31;101214.25;5070943;28;20939;-64
2022/06/01 08:06:37;;;;;;;5.50;4.18;;;;;;;26.58;46.00;101212.38;5068171;28;20414;-63
2022/06/01 08:09:05;;;;;;;7.25;4.80;;;;;;;26.89;45.83;101216.09;5073939;28;20824;-63
2022/06/01 08:14:16;;;;;;;6.38;3.45;;;;;;;26.85;45.34;101218.53;5070815;28;20460;-63
2022/06/01 08:16:45;;;;;;;5.78;3.50;;;;;;;26.94;45.22;101213.38;5073853;28;20435;-63
2022/06/01 08:19:13;;;;;;;5.93;3.22;;;;;;;27.24;45.44;101214.53;5070878;28;20414;-63
2022/06/01 08:21:41;;;;;;;8.38;4.45;;;;;;;27.14;44.97;101214.53;5073536;28;20505;-63
2022/06/01 08:24:09;;;;;;;7.43;4.15;;;;;;;27.05;45.19;101220.47;5070708;28;20403;-63
2022/06/01 08:26:36;;;;;;;5.18;4.15;;;;;;;26.82;45.63;101226.41;5076377;28;20424;-62
2022/06/01 08:29:03;;;;;;;4.53;3.40;;;;;;;27.02;45.13;101215.56;5070752;28;20411;-63
2022/06/01 08:31:31;;;;;;;5.65;3.70;;;;;;;26.90;45.63;101223.16;5070662;28;20521;-63
2022/06/01 08:33:58;;;;;;;6.10;3.47;;;;;;;27.06;45.78;101222.13;5070088;28;20407;-63
2022/06/01 08:36:25;;;;;;;6.75;3.80;;;;;;;26.97;45.80;101221.00;5070030;28;20456;-63
2022/06/01 08:38:53;;;;;;;5.32;3.60;;;;;;;27.33;45.16;101218.38;5070212;28;20411;-63
2022/06/01 08:41:25;;;;;;;5.35;3.17;;;;;;;27.47;44.64;101215.94;5069987;28;20415;-64
2022/06/01 08:43:55;;;;;;;7.15;3.40;;;;;;;27.38;44.94;101220.31;5070014;28;20796;-63
2022/06/01 08:46:23;;;;;;;3.20;2.90;;;;;;;27.43;44.38;101217.59;5070117;28;20441;-63
2022/06/01 08:48:55;;;;;;;4.27;2.90;;;;;;;27.46;43.74;101217.06;5070344;28;20411;-63
2022/06/01 08:51:29;;;;;;;5.10;2.67;;;;;;;27.37;44.04;101210.47;5069626;28;20445;-63
2022/06/01 08:53:59;;;;;;;4.85;3.10;;;;;;;27.19;44.36;101215.34;5069913;28;20908;-63
2022/06/01 08:56:34;;;;;;;4.55;2.95;;;;;;;27.29;43.94;101208.31;5069879;28;20422;-63
2022/06/01 08:59:11;;;;;;;3.63;3.00;;;;;;;27.46;43.98;101222.50;5069861;28;20422;-63
2022/06/01 09:01:44;;;;;;;5.65;3.20;;;;;;;27.06;44.93;101213.13;5069509;28;20455;-63
2022/06/01 09:04:28;;;;;;;4.35;3.25;;;;;;;26.91;45.06;101215.81;5069186;28;20925;-63
2022/06/01 09:07:09;;;;;;;4.22;2.90;;;;;;;27.26;44.86;101215.94;5070060;28;20419;-63
2022/06/01 09:09:47;;;;;;;5.95;2.90;;;;;;;27.13;45.46;101223.75;5069671;28;20422;-62
2022/06/01 09:12:14;;;;;;;7.10;3.35;;;;;;;27.07;44.85;101215.59;5069622;28;20407;-63
2022/06/01 09:14:46;;;;;;;4.05;2.95;;;;;;;27.40;44.95;101218.94;5069863;28;20421;-63
2022/06/01 09:17:13;;;;;;;4.00;3.10;;;;;;;27.40;44.77;101218.13;5069412;28;20430;-63
2022/06/01 09:22:38;;;;;;;4.40;2.90;;;;;;;27.12;45.36;101224.84;5035776;28;20407;-63
2022/06/01 09:25:10;;;;;;;4.80;2.90;;;;;;;26.95;46.00;101214.19;5069440;28;20410;-63
2022/06/01 09:27:39;;;;;;;4.35;2.95;;;;;;;27.10;45.40;101216.97;5069268;28;20932;-63
2022/06/01 09:30:22;;;;;;;3.55;2.92;;;;;;;27.37;45.57;101210.47;5069240;28;20782;-63
2022/06/01 09:33:06;;;;;;;4.40;2.85;;;;;;;27.20;44.75;101206.09;5069363;28;20418;-63
2022/06/01 09:35:39;;;;;;;3.83;2.50;;;;;;;27.15;44.32;101210.69;5069656;28;20403;-63
2022/06/01 09:38:17;;;;;;;5.85;3.20;;;;;;;27.41;43.65;101201.50;5069307;28;20428;-63
2022/06/01 09:40:45;;;;;;;4.30;2.70;;;;;;;27.68;43.80;101207.75;5069240;28;20411;-62
2022/06/01 09:43:23;;;;;;;4.38;2.70;;;;;;;27.20;45.42;101208.81;5069779;28;20403;-62
2022/06/01 09:45:53;;;;;;;4.03;2.63;;;;;;;27.18;45.31;101202.81;5069221;28;20443;-62
2022/06/01 09:48:28;;;;;;;4.07;2.67;;;;;;;27.22;45.26;101206.63;5068246;28;21027;-63
2022/06/01 09:51:02;;;;;;;4.35;2.90;;;;;;;27.53;44.91;101200.44;5068875;28;20415;-62
2022/06/01 09:53:35;;;;;;;5.05;2.72;;;;;;;27.82;44.44;101197.94;5075437;28;20405;-63
2022/06/01 09:56:05;;;;;;;4.93;2.97;;;;;;;27.71;44.04;101199.06;5085452;28;20405;-62
2022/06/01 10:06:52;;;;;;;4.50;2.87;;;;;;;27.84;44.64;101199.31;5069475;28;20445;-63
2022/06/01 10:09:25;;;;;;;4.13;2.70;;;;;;;27.93;43.75;101196.06;5078584;28;20413;-63
2022/06/01 10:11:55;;;;;;;4.38;2.63;;;;;;;28.10;42.62;101193.03;5069810;28;20495;-63
2022/06/01 10:14:24;;;;;;;5.07;2.80;;;;;;;28.08;42.93;101181.59;5077604;28;20401;-63
2022/06/01 10:17:17;;;;;;;3.13;2.60;;;;;;;28.04;42.85;101192.25;5069574;28;20460;-63
2022/06/01 10:19:50;;;;;;;3.90;2.70;;;;;;;27.89;42.31;101184.06;5070202;28;20426;-63
2022/06/01 10:22:29;;;;;;;3.15;2.72;;;;;;;27.99;43.29;101186.81;5070752;28;20430;-63
2022/06/01 10:24:59;;;;;;;3.83;2.70;;;;;;;27.80;43.71;101181.91;5071954;28;20900;-62
2022/06/01 10:27:31;;;;;;;5.18;3.47;;;;;;;27.81;43.18;101178.06;5083986;28;20406;-62
2022/06/01 10:30:08;;;;;;;4.00;2.53;;;;;;;28.22;43.00;101172.56;5072828;28;20406;-62
2022/06/01 10:32:54;;;;;;;3.75;2.65;;;;;;;28.47;42.72;101173.56;5072749;28;20414;-62
2022/06/01 10:35:36;;;;;;;6.53;3.17;;;;;;;28.14;42.80;101180.50;5072683;28;20915;-63
2022/06/01 10:38:11;;;;;;;4.03;2.72;;;;;;;28.19;42.76;101175.84;5072503;28;20427;-63
2022/06/01 10:40:43;;;;;;;3.95;2.63;;;;;;;28.48;41.47;101174.38;5072781;28;20402;-63
2022/06/01 10:43:21;;;;;;;5.80;2.65;;;;;;;28.37;40.79;101170.88;5058892;28;20422;-63
2022/06/01 10:45:52;;;;;;;4.28;2.67;;;;;;;28.45;40.75;101173.03;5072661;28;20407;-63
2022/06/01 10:48:24;;;;;;;4.13;2.50;;;;;;;28.37;40.44;101168.16;5059074;28;20410;-63
2022/06/01 10:51:01;;;;;;;5.10;2.55;;;;;;;28.46;40.69;101174.66;5072575;28;20418;-63
2022/06/01 10:53:39;;;;;;;3.65;2.83;;;;;;;28.33;40.13;101167.09;5072763;28;20476;-63
2022/06/01 10:56:05;;;;;;;4.53;2.20;;;;;;;28.54;40.00;101163.22;5067209;28;20441;-62
2022/06/01 10:58:35;;;;;;;4.43;2.70;;;;;;;28.47;40.33;101161.81;5071989;28;20813;-63
2022/06/01 11:01:09;;;;;;;4.43;2.55;;;;;;;28.09;41.08;101158.69;5076138;28;20412;-63
2022/06/01 11:03:52;;;;;;;4.25;2.47;;;;;;;28.21;41.13;101153.75;5058570;28;20430;-63
2022/06/01 11:06:37;;;;;;;4.32;2.38;;;;;;;28.29;40.95;101152.34;5071738;28;20793;-62
2022/06/01 11:09:14;;;;;;;3.40;2.60;;;;;;;28.51;40.59;101149.28;5071860;28;20415;-63
2022/06/01 11:11:47;;;;;;;2.58;2.28;;;;;;;28.74;40.14;101145.91;5071551;28;20932;-63
2022/06/01 11:14:30;;;;;;;3.80;2.67;;;;;;;28.60;40.27;101155.81;5071756;28;20905;-63
2022/06/01 11:16:59;;;;;;;3.53;2.72;;;;;;;28.44;40.57;101148.78;5071866;28;20418;-63
2022/06/01 11:19:59;;;;;;;4.57;2.40;;;;;;;28.29;40.62;101146.91;5071990;28;20430;-62
2022/06/01 11:22:44;;;;;;;5.70;2.80;;;;;;;28.51;40.43;101141.09;5070124;28;20407;-62
2022/06/01 11:25:19;;;;;;;4.20;2.40;;;;;;;28.78;39.86;101140.72;5066152;28;20419;-63
2022/06/01 11:28:01;;;;;;;3.95;2.42;;;;;;;28.50;39.95;101142.19;5069020;28;20407;-63
2022/06/01 11:30:38;;;;;;;5.25;2.80;;;;;;;28.61;39.74;101141.06;5069666;28;20426;-63
2022/06/01 11:33:15;;;;;;;3.63;2.60;;;;;;;28.53;39.80;101138.91;5059010;28;20403;-63
2022/06/01 11:35:46;;;;;;;3.92;2.80;;;;;;;28.69;39.85;101131.50;5070631;28;20442;-63
2022/06/01 11:38:20;;;;;;;3.55;2.40;;;;;;;28.63;40.54;101129.88;5074692;28;20924;-63
2022/06/01 11:40:53;;;;;;;5.45;2.53;;;;;;;28.55;40.39;101118.47;5071361;28;20425;-63
2022/06/01 11:43:30;;;;;;;3.35;2.40;;;;;;;28.53;40.16;101119.81;5071067;28;20421;-63
2022/06/01 11:46:03;;;;;;;4.05;2.70;;;;;;;28.59;40.66;101129.63;5070820;28;20411;-62
2022/06/01 11:48:32;;;;;;;3.95;2.78;;;;;;;28.69;40.46;101129.56;5071123;28;20423;-63
2022/06/01 11:51:15;;;;;;;4.32;2.40;;;;;;;28.48;40.45;101125.28;5071152;28;20406;-63
2022/06/01 11:53:56;;;;;;;5.18;2.60;;;;;;;28.71;40.39;101113.72;5071206;28;20410;-62
2022/06/01 11:56:26;;;;;;;5.30;2.70;;;;;;;28.61;40.19;101121.97;5071207;28;20415;-63
2022/06/01 11:59:20;;;;;;;3.70;2.42;;;;;;;28.66;40.13;101119.22;5070033;28;20442;-62
2022/06/01 12:01:53;;;;;;;4.40;2.60;;;;;;;28.68;40.36;101114.28;5068394;28;20414;-63
2022/06/01 12:04:25;;;;;;;4.00;2.50;;;;;;;28.54;40.26;101113.28;5071302;28;20770;-63
2022/06/01 12:06:59;;;;;;;3.75;2.60;;;;;;;28.83;39.73;101094.28;5071868;28;20422;-63
2022/06/01 12:09:41;;;;;;;4.85;2.83;;;;;;;28.92;40.59;101102.69;5072553;28;20410;-63